createdAt,value
2023-01-26T00:01:59.205Z,0.87
2023-01-26T00:07:00.746Z,0.87
2023-01-26T00:12:02.218Z,0.96
2023-01-26T00:17:03.704Z,1.06
2023-01-26T00:22:05.184Z,1.08
2023-01-26T00:27:06.670Z,1.12
2023-01-26T00:32:08.156Z,1.12
2023-01-26T00:37:09.650Z,1.04
2023-01-26T00:42:14.092Z,0.99
2023-01-26T00:47:15.605Z,0.97
2023-01-26T00:52:17.068Z,1.06
2023-01-26T00:57:18.639Z,1.15
2023-01-26T01:02:20.688Z,1.19
2023-01-26T01:07:22.220Z,1.21
2023-01-26T01:12:23.817Z,1.16
2023-01-26T01:17:25.653Z,1.07
2023-01-26T01:22:27.131Z,1.01
2023-01-26T01:27:28.720Z,1.09
2023-01-26T01:32:30.234Z,1.11
2023-01-26T01:37:33.492Z,1.09
2023-01-26T01:42:34.970Z,1.08
2023-01-26T01:47:36.511Z,1.05
2023-01-26T01:52:38.022Z,1.06
2023-01-26T01:57:55.845Z,1.03
2023-01-26T02:03:21.131Z,1.11
2023-01-26T02:08:27.807Z,1.15
2023-01-26T02:13:31.702Z,1.12
2023-01-26T02:18:33.448Z,1.05
2023-01-26T02:23:41.333Z,1.04
2023-01-26T02:28:44.679Z,1.01
2023-01-26T02:33:46.264Z,1.08
2023-01-26T02:39:29.570Z,1.16
2023-01-26T02:44:32.374Z,1.17
2023-01-26T02:49:50.756Z,1.12
2023-01-26T02:55:12.162Z,1.04
2023-01-26T03:00:18.775Z,0.96
2023-01-26T03:05:20.635Z,1.01
2023-01-26T03:10:24.305Z,1.07
2023-01-26T03:15:43.388Z,1.07
2023-01-26T03:21:03.675Z,1.10
2023-01-26T03:26:23.700Z,1.21
2023-01-26T03:31:25.284Z,1.24
2023-01-26T03:36:26.797Z,1.19
2023-01-26T03:41:47.125Z,1.12
2023-01-26T03:47:07.092Z,1.09
2023-01-26T03:52:27.145Z,0.98
2023-01-26T03:57:29.563Z,0.95
2023-01-26T04:02:49.484Z,1.04
2023-01-26T04:08:09.465Z,1.13
2023-01-26T04:13:29.462Z,1.04
2023-01-26T04:18:49.904Z,0.95
2023-01-26T04:23:58.066Z,0.89
2023-01-26T04:28:59.712Z,0.97
2023-01-26T04:34:03.189Z,1.04
2023-01-26T04:39:04.987Z,1.01
2023-01-26T04:44:06.496Z,0.96
2023-01-26T04:49:08.920Z,0.92
2023-01-26T04:54:10.453Z,0.90
2023-01-26T04:59:12.362Z,0.97
2023-01-26T05:04:14.282Z,1.06
2023-01-26T05:09:15.772Z,1.06
2023-01-26T05:14:17.304Z,0.99
2023-01-26T05:19:18.820Z,0.92
2023-01-26T05:24:20.328Z,0.86
2023-01-26T05:29:23.421Z,0.77
2023-01-26T05:34:24.875Z,0.72
2023-01-26T05:39:26.345Z,0.82
2023-01-26T05:44:29.415Z,0.87
2023-01-26T05:49:31.507Z,0.85
2023-01-26T05:54:33.011Z,0.86
2023-01-26T05:59:37.110Z,0.79
2023-01-26T06:04:38.762Z,0.74
2023-01-26T06:09:41.092Z,0.84
2023-01-26T06:14:42.819Z,0.94
2023-01-26T06:19:44.620Z,0.91
2023-01-26T06:24:50.114Z,0.84
2023-01-26T06:29:51.640Z,0.79
2023-01-26T06:34:56.144Z,0.74
2023-01-26T06:39:57.523Z,0.77
2023-01-26T06:44:59.072Z,0.88
2023-01-26T06:50:03.564Z,0.89
2023-01-26T06:55:05.161Z,0.82
2023-01-26T07:00:07.716Z,0.78
2023-01-26T07:05:11.114Z,0.71
2023-01-26T07:10:13.679Z,0.66
2023-01-26T07:15:15.467Z,0.60
2023-01-26T07:20:17.011Z,0.72
2023-01-26T07:25:19.348Z,0.78
2023-01-26T07:30:23.105Z,0.78
2023-01-26T07:35:24.650Z,0.76
2023-01-26T07:40:26.166Z,0.75
2023-01-26T07:45:28.280Z,0.89
2023-01-26T07:50:30.272Z,0.97
2023-01-26T07:55:31.764Z,0.99
2023-01-26T08:00:33.228Z,0.96
2023-01-26T08:05:37.129Z,0.89
2023-01-26T08:10:38.962Z,0.88
2023-01-26T08:15:40.433Z,0.95
2023-01-26T08:20:42.535Z,1.06
2023-01-26T08:25:44.684Z,1.07
2023-01-26T08:30:46.207Z,1.04
2023-01-26T08:35:47.713Z,1.05
2023-01-26T08:40:52.199Z,1.05
2023-01-26T08:45:56.261Z,1.01
2023-01-26T08:51:02.459Z,1.02
2023-01-26T08:56:06.217Z,1.10
2023-01-26T09:01:11.754Z,1.12
2023-01-26T09:06:17.359Z,1.08
2023-01-26T09:11:18.824Z,1.06
2023-01-26T09:16:20.772Z,1.15
2023-01-26T09:21:25.150Z,1.27
2023-01-26T09:26:26.687Z,1.32
2023-01-26T09:31:28.339Z,1.32
2023-01-26T09:36:29.995Z,1.31
2023-01-26T09:41:57.097Z,1.28
2023-01-26T09:47:21.716Z,1.31
2023-01-26T09:52:39.442Z,1.50
2023-01-26T09:58:13.306Z,1.58
2023-01-26T10:03:43.094Z,1.63
2023-01-26T10:08:45.288Z,1.68
2023-01-26T10:13:57.091Z,1.70
2023-01-26T10:19:12.800Z,1.68
2023-01-26T10:24:20.786Z,1.65
2023-01-26T10:29:23.011Z,1.72
2023-01-26T10:34:27.723Z,1.82
2023-01-26T10:39:29.278Z,2.03
2023-01-26T10:44:38.599Z,2.07
2023-01-26T10:49:40.272Z,2.10
2023-01-26T10:54:44.012Z,2.10
2023-01-26T10:59:53.613Z,2.05
2023-01-26T11:05:07.080Z,1.99
2023-01-26T11:10:28.204Z,1.94
2023-01-26T11:15:36.653Z,1.86
2023-01-26T11:20:51.934Z,1.86
2023-01-26T11:26:15.342Z,2.00
2023-01-26T11:31:40.090Z,2.02
2023-01-26T11:37:16.361Z,1.97
2023-01-26T11:42:36.134Z,1.90
2023-01-26T11:48:08.235Z,1.84
2023-01-26T11:53:24.074Z,1.77
2023-01-26T11:58:41.131Z,1.69
2023-01-26T12:03:49.479Z,1.81
2023-01-26T12:09:00.396Z,1.90
2023-01-26T12:14:23.178Z,1.86
2023-01-26T12:19:33.831Z,1.87
2023-01-26T12:25:08.182Z,1.89
2023-01-26T12:30:19.935Z,1.87
2023-01-26T12:35:46.728Z,1.85
2023-01-26T12:41:14.231Z,1.82
2023-01-26T12:46:17.892Z,1.80
2023-01-26T12:51:29.820Z,1.80
2023-01-26T12:56:45.551Z,1.81
2023-01-26T13:01:47.668Z,1.80
2023-01-26T13:07:33.567Z,1.74
2023-01-26T13:12:46.903Z,1.86
2023-01-26T13:17:51.498Z,1.89
2023-01-26T13:22:54.710Z,1.86
2023-01-26T13:27:59.049Z,1.79
2023-01-26T13:33:20.679Z,1.73
2023-01-26T13:38:39.250Z,1.62
2023-01-26T13:43:46.382Z,1.55
2023-01-26T13:48:55.387Z,1.50
2023-01-26T13:54:01.694Z,1.46
2023-01-26T13:59:09.234Z,1.41
2023-01-26T14:04:21.410Z,1.34
2023-01-26T14:09:26.503Z,1.26
2023-01-26T14:14:31.635Z,1.21
2023-01-26T14:19:40.207Z,1.33
2023-01-26T14:24:43.350Z,1.44
2023-01-26T14:29:44.908Z,1.41
2023-01-26T14:34:55.009Z,1.38
2023-01-26T14:40:23.600Z,1.31
2023-01-26T14:45:31.327Z,1.15
2023-01-26T14:50:33.892Z,1.06
2023-01-26T14:55:36.469Z,1.01
2023-01-26T15:06:20.364Z,0.82
2023-01-26T15:11:58.329Z,0.72
2023-01-26T15:17:00.163Z,0.65
2023-01-26T15:22:01.738Z,0.63
2023-01-26T15:27:07.491Z,0.60
2023-01-26T15:32:28.488Z,0.66
2023-01-26T15:37:32.712Z,0.77
2023-01-26T15:42:34.414Z,0.80
2023-01-26T15:47:35.894Z,0.79
2023-01-26T15:52:37.431Z,0.76
2023-01-26T15:57:38.942Z,0.70
2023-01-26T16:02:40.494Z,0.68
2023-01-26T16:07:42.089Z,0.66
2023-01-26T16:12:44.711Z,0.65
2023-01-26T16:17:46.228Z,0.65
2023-01-26T16:22:47.741Z,0.61
2023-01-26T16:27:49.662Z,0.59
2023-01-26T16:32:51.989Z,0.53
2023-01-26T16:37:54.422Z,0.47
2023-01-26T16:42:56.131Z,0.44
2023-01-26T16:47:58.285Z,0.42
2023-01-26T16:53:07.811Z,0.41
2023-01-26T16:58:09.458Z,0.41
2023-01-26T17:03:13.907Z,0.53
2023-01-26T17:08:15.275Z,0.67
2023-01-26T17:13:17.892Z,0.71
2023-01-26T17:18:19.867Z,0.67
2023-01-26T17:23:21.490Z,0.69
2023-01-26T17:28:23.063Z,0.68
2023-01-26T17:33:24.613Z,0.63
2023-01-26T17:38:26.129Z,0.56
2023-01-26T17:43:28.735Z,0.49
2023-01-26T17:48:33.717Z,0.42
2023-01-26T17:53:44.931Z,0.38
2023-01-26T17:58:55.320Z,0.33
2023-01-26T18:03:57.361Z,0.31
2023-01-26T18:08:58.899Z,0.28
2023-01-26T18:14:00.497Z,0.24
2023-01-26T18:19:04.344Z,0.20
2023-01-26T18:24:06.799Z,0.18
2023-01-26T18:29:09.532Z,0.16
2023-01-26T18:34:11.589Z,0.18
2023-01-26T18:39:14.725Z,0.31
2023-01-26T18:44:18.182Z,0.43
2023-01-26T18:49:19.773Z,0.54
2023-01-26T18:54:21.293Z,0.54
2023-01-26T18:59:22.884Z,0.50
2023-01-26T19:04:24.367Z,0.43
2023-01-26T19:09:30.707Z,0.40
2023-01-26T19:14:32.771Z,0.34
2023-01-26T19:19:34.583Z,0.28
2023-01-26T19:24:36.063Z,0.23
2023-01-26T19:29:37.649Z,0.15
2023-01-26T19:34:39.135Z,0.09
2023-01-26T19:39:40.733Z,0.09
2023-01-26T19:44:42.739Z,0.11
2023-01-26T19:49:44.208Z,0.11
2023-01-26T19:54:45.703Z,0.04
2023-01-26T19:59:47.710Z,-0.02
2023-01-26T20:04:49.213Z,-0.06
2023-01-26T20:09:51.048Z,-0.06
2023-01-26T20:14:53.581Z,-0.04
2023-01-26T20:19:56.071Z,0.13
2023-01-26T20:24:57.565Z,0.33
2023-01-26T20:29:59.522Z,0.47
2023-01-26T20:35:02.326Z,0.50
2023-01-26T20:40:05.831Z,0.51
2023-01-26T20:45:08.718Z,0.43
2023-01-26T20:50:12.830Z,0.37
2023-01-26T20:55:14.702Z,0.36
2023-01-26T21:00:17.044Z,0.32
2023-01-26T21:05:19.634Z,0.26
2023-01-26T21:10:21.271Z,0.19
2023-01-26T21:15:22.971Z,0.13
2023-01-26T21:20:24.918Z,0.07
2023-01-26T21:25:26.916Z,0.02
2023-01-26T21:30:28.470Z,-0.04
2023-01-26T21:35:30.163Z,-0.07
2023-01-26T21:40:31.680Z,0.06
2023-01-26T21:45:52.835Z,0.27
2023-01-26T21:51:17.645Z,0.38
2023-01-26T21:56:19.142Z,0.39
2023-01-26T22:01:21.681Z,0.29
2023-01-26T22:06:23.667Z,0.11
2023-01-26T22:11:26.166Z,-0.02
2023-01-26T22:16:28.200Z,-0.04
2023-01-26T22:21:29.795Z,-0.08
2023-01-26T22:26:31.467Z,-0.06
2023-01-26T22:31:33.903Z,-0.05
2023-01-26T22:36:35.484Z,-0.12
2023-01-26T22:41:37.790Z,-0.17
2023-01-26T22:46:39.703Z,-0.19
2023-01-26T22:51:41.304Z,-0.07
2023-01-26T22:56:42.804Z,0.09
2023-01-26T23:01:44.423Z,0.19
2023-01-26T23:06:45.952Z,0.24
2023-01-26T23:11:47.416Z,0.21
2023-01-26T23:16:48.973Z,0.10
2023-01-26T23:21:50.535Z,0.03
2023-01-26T23:26:52.146Z,0.00
2023-01-26T23:31:53.691Z,-0.04
2023-01-26T23:36:55.284Z,-0.11
2023-01-26T23:41:57.446Z,-0.18
2023-01-26T23:46:58.977Z,-0.22
2023-01-26T23:52:00.548Z,-0.10
2023-01-26T23:57:02.019Z,-0.01
